Time,TemperatureF,DewpointF,PressureIn,WindDirection,WindDirectionDegrees,WindSpeedMPH,WindSpeedGustMPH,Humidity,HourlyPrecipIn,Conditions,Clouds,dailyrainin,SoftwareType,DateUTC
2013-02-20 00:07:00,35.9,35.9,29.93,NE,48,0.0,0.0,100,0.00,,,0.00,Wunderground v.1.15,2013-02-20 08:07:00,
2013-02-20 00:17:00,35.8,35.8,29.94,North,10,0.0,0.0,100,0.00,,,0.00,Wunderground v.1.15,2013-02-20 08:17:00,
2013-02-20 00:27:00,35.5,35.5,29.94,North,10,0.0,0.0,100,0.00,,,0.00,Wunderground v.1.15,2013-02-20 08:27:00,
2013-02-20 00:32:00,35.5,35.5,29.94,NNE,21,0.0,0.0,100,0.00,,,0.00,Wunderground v.1.15,2013-02-20 08:32:00,
2013-02-20 00:42:00,35.3,35.3,29.94,NNE,27,0.0,0.0,100,0.00,,,0.00,Wunderground v.1.15,2013-02-20 08:42:00,
2013-02-20 00:52:00,35.0,35.0,29.94,NNE,27,0.0,0.0,100,0.00,,,0.00,Wunderground v.1.15,2013-02-20 08:52:00,
2013-02-20 01:02:00,34.7,34.7,29.94,NNE,27,0.0,0.0,100,0.00,,,0.00,Wunderground v.1.15,2013-02-20 09:02:00,
2013-02-20 01:07:00,34.9,34.9,29.94,NNE,27,0.0,0.0,100,0.00,,,0.00,Wunderground v.1.15,2013-02-20 09:07:00,
2013-02-20 01:12:00,34.9,34.9,29.94,NNE,27,0.0,0.0,100,0.00,,,0.00,Wunderground v.1.15,2013-02-20 09:12:00,
2013-02-20 01:22:00,34.9,34.9,29.95,NNE,27,0.0,0.0,100,0.00,,,0.00,Wunderground v.1.15,2013-02-20 09:22:00,
2013-02-20 01:32:00,34.6,34.6,29.95,NNE,27,0.0,0.0,100,0.00,,,0.00,Wunderground v.1.15,2013-02-20 09:32:00,
2013-02-20 01:37:00,34.6,34.6,29.95,NNE,27,0.0,0.0,100,0.00,,,0.00,Wunderground v.1.15,2013-02-20 09:37:00,
2013-02-20 01:47:00,34.3,34.3,29.96,NNE,27,0.0,0.0,100,0.00,,,0.00,Wunderground v.1.15,2013-02-20 09:47:00,
2013-02-20 01:52:00,34.4,34.4,29.96,NNE,27,0.0,0.0,100,0.00,,,0.00,Wunderground v.1.15,2013-02-20 09:52:00,
2013-02-20 02:02:00,34.0,34.0,29.96,NNE,27,0.0,0.0,100,0.00,,,0.00,Wunderground v.1.15,2013-02-20 10:02:00,
2013-02-20 02:07:00,33.8,33.8,29.96,NNE,27,0.0,0.0,100,0.00,,,0.00,Wunderground v.1.15,2013-02-20 10:07:00,
2013-02-20 02:12:00,33.8,33.8,29.96,NNE,27,0.0,0.0,100,0.00,,,0.00,Wunderground v.1.15,2013-02-20 10:12:00,
2013-02-20 02:22:00,33.8,33.8,29.97,NE,55,0.0,0.0,100,0.00,,,0.00,Wunderground v.1.15,2013-02-20 10:22:00,
2013-02-20 02:32:00,34.0,34.0,29.97,NE,55,0.0,0.0,100,0.00,,,0.00,Wunderground v.1.15,2013-02-20 10:32:00,
2013-02-20 02:37:00,33.8,33.8,29.97,NE,37,0.0,0.0,100,0.00,,,0.00,Wunderground v.1.15,2013-02-20 10:37:00,
2013-02-20 02:47:00,34.1,34.1,29.97,NE,37,0.0,0.0,100,0.00,,,0.00,Wunderground v.1.15,2013-02-20 10:47:00,
2013-02-20 02:52:00,34.1,34.1,29.97,NE,37,0.0,0.0,100,0.00,,,0.00,Wunderground v.1.15,2013-02-20 10:52:00,
2013-02-20 03:02:00,34.1,34.1,29.98,NE,37,0.0,0.0,100,0.00,,,0.00,Wunderground v.1.15,2013-02-20 11:02:00,
2013-02-20 03:12:00,34.4,34.4,29.98,NE,37,0.0,0.0,100,0.00,,,0.00,Wunderground v.1.15,2013-02-20 11:12:00,
2013-02-20 03:22:00,34.7,34.7,29.98,NE,37,0.0,0.0,100,0.00,,,0.00,Wunderground v.1.15,2013-02-20 11:22:00,
2013-02-20 03:32:00,34.9,34.9,29.98,NE,37,0.0,0.0,100,0.00,,,0.00,Wunderground v.1.15,2013-02-20 11:32:00,
2013-02-20 03:37:00,34.9,34.9,29.98,NE,37,0.0,0.0,100,0.00,,,0.00,Wunderground v.1.15,2013-02-20 11:37:00,
2013-02-20 03:47:00,35.2,35.2,29.98,NE,37,0.0,0.0,100,0.00,,,0.00,Wunderground v.1.15,2013-02-20 11:47:00,
2013-02-20 03:52:00,35.3,35.3,29.98,NE,37,0.0,0.0,100,0.00,,,0.00,Wunderground v.1.15,2013-02-20 11:52:00,
2013-02-20 04:02:00,35.5,35.5,29.97,NE,37,0.0,0.0,100,0.00,,,0.00,Wunderground v.1.15,2013-02-20 12:02:00,
2013-02-20 04:12:00,35.6,35.6,29.97,NE,37,0.0,0.0,100,0.00,,,0.00,Wunderground v.1.15,2013-02-20 12:12:00,
2013-02-20 04:22:00,35.8,35.8,29.97,NE,37,0.0,0.0,100,0.00,,,0.00,Wunderground v.1.15,2013-02-20 12:22:00,
2013-02-20 04:32:00,35.8,35.8,29.98,NE,37,0.0,0.0,100,0.00,,,0.00,Wunderground v.1.15,2013-02-20 12:32:00,
2013-02-20 04:37:00,35.9,35.9,29.98,NE,37,0.0,0.0,100,0.00,,,0.00,Wunderground v.1.15,2013-02-20 12:37:00,
2013-02-20 04:47:00,36.0,36.0,29.98,NE,37,0.0,0.0,100,0.00,,,0.00,Wunderground v.1.15,2013-02-20 12:47:00,
2013-02-20 04:52:00,36.0,36.0,29.98,NE,37,0.0,0.0,100,0.00,,,0.00,Wunderground v.1.15,2013-02-20 12:52:00,
2013-02-20 05:02:00,36.0,36.0,29.99,NE,37,0.0,0.0,100,0.00,,,0.00,Wunderground v.1.15,2013-02-20 13:02:00,
2013-02-20 05:12:00,36.0,36.0,29.99,NE,37,0.0,0.0,100,0.00,,,0.00,Wunderground v.1.15,2013-02-20 13:12:00,
2013-02-20 05:22:00,36.0,36.0,29.99,NE,37,0.0,0.0,100,0.00,,,0.00,Wunderground v.1.15,2013-02-20 13:22:00,
2013-02-20 05:32:00,36.0,36.0,29.99,NE,37,0.0,0.0,100,0.00,,,0.00,Wunderground v.1.15,2013-02-20 13:32:00,
2013-02-20 05:37:00,36.0,36.0,29.99,NE,37,0.0,0.0,100,0.00,,,0.00,Wunderground v.1.15,2013-02-20 13:37:00,
2013-02-20 05:47:00,36.0,36.0,29.99,NE,37,0.0,0.0,100,0.00,,,0.00,Wunderground v.1.15,2013-02-20 13:47:00,
2013-02-20 05:57:00,36.0,36.0,29.99,NE,37,0.0,0.0,100,0.00,,,0.00,Wunderground v.1.15,2013-02-20 13:57:00,
2013-02-20 06:02:00,36.2,36.2,29.99,NE,37,0.0,0.0,100,0.00,,,0.00,Wunderground v.1.15,2013-02-20 14:02:00,
2013-02-20 06:07:00,36.2,36.2,29.99,NE,37,0.0,0.0,100,0.00,,,0.00,Wunderground v.1.15,2013-02-20 14:07:00,
2013-02-20 06:17:00,36.2,36.2,29.99,ENE,62,0.0,0.0,100,0.00,,,0.00,Wunderground v.1.15,2013-02-20 14:17:00,
2013-02-20 06:22:00,36.2,36.2,29.99,ENE,62,0.0,0.0,100,0.00,,,0.00,Wunderground v.1.15,2013-02-20 14:22:00,
2013-02-20 06:32:00,36.2,36.2,30.00,ENE,69,0.0,0.0,100,0.00,,,0.00,Wunderground v.1.15,2013-02-20 14:32:00,
2013-02-20 06:42:00,36.3,36.3,30.00,ENE,69,0.0,0.0,100,0.00,,,0.00,Wunderground v.1.15,2013-02-20 14:42:00,
2013-02-20 06:47:00,36.3,36.3,29.99,ENE,69,0.0,0.0,100,0.00,,,0.00,Wunderground v.1.15,2013-02-20 14:47:00,
2013-02-20 06:57:00,36.3,36.3,29.99,SSE,151,0.0,0.0,100,0.00,,,0.00,Wunderground v.1.15,2013-02-20 14:57:00,
2013-02-20 07:02:00,36.5,36.5,29.99,SSE,157,0.0,0.0,100,0.00,,,0.00,Wunderground v.1.15,2013-02-20 15:02:00,
2013-02-20 07:07:00,36.5,36.5,29.99,SSE,150,0.0,0.0,100,0.00,,,0.00,Wunderground v.1.15,2013-02-20 15:07:00,
2013-02-20 07:17:00,36.6,36.6,30.00,ESE,112,0.0,0.0,100,0.00,,,0.00,Wunderground v.1.15,2013-02-20 15:17:00,
2013-02-20 07:22:00,36.6,36.6,30.00,SE,145,0.0,0.0,100,0.00,,,0.00,Wunderground v.1.15,2013-02-20 15:22:00,
2013-02-20 07:32:00,36.8,36.8,30.00,SSE,161,0.0,0.0,100,0.00,,,0.00,Wunderground v.1.15,2013-02-20 15:32:00,
2013-02-20 07:42:00,36.8,36.8,30.00,ESE,116,0.0,0.0,100,0.00,,,0.00,Wunderground v.1.15,2013-02-20 15:42:00,
2013-02-20 07:47:00,36.8,36.8,30.00,SSE,164,0.0,0.0,100,0.00,,,0.00,Wunderground v.1.15,2013-02-20 15:47:00,
2013-02-20 07:57:00,36.9,36.9,30.00,SSE,168,0.0,0.0,100,0.00,,,0.00,Wunderground v.1.15,2013-02-20 15:57:00,
2013-02-20 08:02:00,36.8,36.8,30.00,South,181,0.0,0.0,100,0.00,,,0.00,Wunderground v.1.15,2013-02-20 16:02:00,
2013-02-20 08:07:00,36.8,36.8,30.00,SE,141,0.0,0.0,100,0.00,,,0.00,Wunderground v.1.15,2013-02-20 16:07:00,
2013-02-20 08:17:00,36.8,36.8,30.00,SSE,164,0.0,0.0,100,0.00,,,0.00,Wunderground v.1.15,2013-02-20 16:17:00,
2013-02-20 08:22:00,36.9,36.9,30.00,SSW,196,0.0,0.0,100,0.00,,,0.00,Wunderground v.1.15,2013-02-20 16:22:00,
2013-02-20 08:32:00,37.3,37.3,30.00,South,174,0.0,0.0,100,0.00,,,0.00,Wunderground v.1.15,2013-02-20 16:32:00,
2013-02-20 08:42:00,37.5,37.5,30.00,SSE,162,0.0,0.0,100,0.00,,,0.00,Wunderground v.1.15,2013-02-20 16:42:00,
2013-02-20 08:47:00,37.5,37.5,30.00,South,169,0.0,0.0,100,0.00,,,0.00,Wunderground v.1.15,2013-02-20 16:47:00,
2013-02-20 08:57:00,37.9,37.9,30.00,SSE,152,0.0,0.0,100,0.00,,,0.00,Wunderground v.1.15,2013-02-20 16:57:00,
2013-02-20 09:07:00,38.3,38.3,30.00,SSE,147,0.0,1.0,100,0.00,,,0.00,Wunderground v.1.15,2013-02-20 17:07:00,
2013-02-20 09:17:00,38.6,38.6,30.00,SSE,155,0.0,0.0,100,0.00,,,0.00,Wunderground v.1.15,2013-02-20 17:17:00,
2013-02-20 09:27:00,38.9,38.9,30.00,SSE,150,0.0,0.0,100,0.00,,,0.00,Wunderground v.1.15,2013-02-20 17:27:00,
2013-02-20 09:32:00,39.2,39.2,30.00,SE,137,0.0,0.0,100,0.00,,,0.00,Wunderground v.1.15,2013-02-20 17:32:00,
2013-02-20 09:42:00,39.5,39.5,30.00,SSE,161,0.0,0.0,100,0.00,,,0.00,Wunderground v.1.15,2013-02-20 17:42:00,
2013-02-20 09:47:00,39.6,39.6,30.00,SSW,196,0.0,0.0,100,0.00,,,0.00,Wunderground v.1.15,2013-02-20 17:47:00,
2013-02-20 09:57:00,39.9,39.9,30.00,SE,144,0.0,0.0,100,0.00,,,0.00,Wunderground v.1.15,2013-02-20 17:57:00,
2013-02-20 10:07:00,40.3,40.3,30.00,SSE,167,0.0,0.0,100,0.00,,,0.00,Wunderground v.1.15,2013-02-20 18:07:00,
2013-02-20 10:17:00,40.6,40.6,30.00,SE,130,0.0,0.0,100,0.00,,,0.00,Wunderground v.1.15,2013-02-20 18:17:00,
2013-02-20 10:27:00,40.9,40.9,30.00,SSE,152,0.0,0.0,100,0.00,,,0.00,Wunderground v.1.15,2013-02-20 18:27:00,
2013-02-20 10:32:00,40.9,40.9,30.00,SE,138,0.0,0.0,100,0.00,,,0.00,Wunderground v.1.15,2013-02-20 18:32:00,
2013-02-20 10:42:00,41.5,41.5,30.00,SSE,154,0.0,0.0,100,0.00,,,0.00,Wunderground v.1.15,2013-02-20 18:42:00,
2013-02-20 10:47:00,41.5,41.5,30.01,South,169,0.0,0.0,100,0.00,,,0.00,Wunderground v.1.15,2013-02-20 18:47:00,
2013-02-20 10:57:00,41.5,41.5,30.01,SE,130,0.0,0.0,100,0.00,,,0.00,Wunderground v.1.15,2013-02-20 18:57:00,
2013-02-20 11:02:00,41.8,41.8,30.01,ESE,102,0.0,1.0,100,0.00,,,0.00,Wunderground v.1.15,2013-02-20 19:02:00,
2013-02-20 11:07:00,42.2,42.2,30.01,ESE,112,0.0,1.0,100,0.00,,,0.00,Wunderground v.1.15,2013-02-20 19:07:00,
2013-02-20 11:17:00,43.1,43.1,30.00,SE,144,0.0,0.0,100,0.00,,,0.00,Wunderground v.1.15,2013-02-20 19:17:00,
2013-02-20 11:27:00,43.3,43.3,30.00,SSE,165,0.0,0.0,100,0.00,,,0.00,Wunderground v.1.15,2013-02-20 19:27:00,
2013-02-20 11:32:00,43.2,43.2,30.00,South,179,0.0,0.0,100,0.00,,,0.00,Wunderground v.1.15,2013-02-20 19:32:00,
2013-02-20 11:42:00,43.2,43.2,30.00,South,174,0.0,0.0,100,0.00,,,0.00,Wunderground v.1.15,2013-02-20 19:42:00,
2013-02-20 11:47:00,43.3,43.3,29.99,SE,126,0.0,0.0,100,0.00,,,0.00,Wunderground v.1.15,2013-02-20 19:47:00,
2013-02-20 11:57:00,43.3,43.3,29.99,SSE,165,0.0,0.0,100,0.00,,,0.00,Wunderground v.1.15,2013-02-20 19:57:00,
2013-02-20 12:07:00,43.8,43.8,29.99,SE,140,0.0,1.0,100,0.00,,,0.00,Wunderground v.1.15,2013-02-20 20:07:00,
2013-02-20 12:17:00,44.2,42.6,29.99,South,175,0.0,0.0,94,0.00,,,0.00,Wunderground v.1.15,2013-02-20 20:17:00,
2013-02-20 12:27:00,44.2,43.4,29.99,South,184,0.0,0.0,97,0.00,,,0.00,Wunderground v.1.15,2013-02-20 20:27:00,
2013-02-20 12:32:00,44.3,43.2,29.98,SSE,160,0.0,0.0,96,0.00,,,0.00,Wunderground v.1.15,2013-02-20 20:32:00,
2013-02-20 12:42:00,44.2,43.7,29.98,SSW,205,0.0,0.0,98,0.00,,,0.00,Wunderground v.1.15,2013-02-20 20:42:00,
2013-02-20 12:52:00,44.2,44.2,29.97,South,169,0.0,0.0,100,0.00,,,0.00,Wunderground v.1.15,2013-02-20 20:52:00,
2013-02-20 12:57:00,44.3,43.8,29.97,SSE,160,0.0,0.0,98,0.00,,,0.00,Wunderground v.1.15,2013-02-20 20:57:00,
2013-02-20 13:07:00,44.3,42.7,29.97,SSW,199,0.0,1.0,94,0.00,,,0.00,Wunderground v.1.15,2013-02-20 21:07:00,
2013-02-20 13:17:00,44.3,43.0,29.96,South,184,0.0,1.0,95,0.00,,,0.00,Wunderground v.1.15,2013-02-20 21:17:00,
2013-02-20 13:27:00,44.3,43.2,29.96,SSE,162,0.0,0.0,96,0.00,,,0.00,Wunderground v.1.15,2013-02-20 21:27:00,
2013-02-20 13:32:00,44.3,43.2,29.95,SSE,151,0.0,0.0,96,0.00,,,0.00,Wunderground v.1.15,2013-02-20 21:32:00,
2013-02-20 13:42:00,44.5,44.2,29.95,South,188,0.0,0.0,99,0.00,,,0.00,Wunderground v.1.15,2013-02-20 21:42:00,
2013-02-20 13:52:00,44.6,43.5,29.94,ESE,121,0.0,0.0,96,0.00,,,0.00,Wunderground v.1.15,2013-02-20 21:52:00,
2013-02-20 14:02:00,44.9,43.6,29.94,SSE,157,0.0,5.0,95,0.00,,,0.00,Wunderground v.1.15,2013-02-20 22:02:00,
2013-02-20 14:07:00,44.9,42.7,29.94,South,169,0.0,5.0,92,0.00,,,0.00,Wunderground v.1.15,2013-02-20 22:07:00,
2013-02-20 14:12:00,45.1,42.9,29.94,SSE,160,0.0,0.0,92,0.00,,,0.00,Wunderground v.1.15,2013-02-20 22:12:00,
2013-02-20 14:22:00,45.4,42.6,29.93,SSE,157,0.0,1.0,90,0.00,,,0.00,Wunderground v.1.15,2013-02-20 22:22:00,
2013-02-20 14:32:00,45.5,42.7,29.92,SSE,152,0.0,0.0,90,0.00,,,0.00,Wunderground v.1.15,2013-02-20 22:32:00,
2013-02-20 14:42:00,45.4,41.8,29.92,SSE,161,0.0,0.0,87,0.00,,,0.00,Wunderground v.1.15,2013-02-20 22:42:00,
2013-02-20 14:47:00,45.4,41.5,29.92,SSE,157,0.0,0.0,86,0.00,,,0.00,Wunderground v.1.15,2013-02-20 22:47:00,
2013-02-20 14:57:00,45.2,42.4,29.92,South,174,0.0,0.0,90,0.00,,,0.00,Wunderground v.1.15,2013-02-20 22:57:00,
2013-02-20 15:07:00,44.6,44.6,29.93,SSE,155,0.0,1.0,100,0.00,,,0.00,Wunderground v.1.15,2013-02-20 23:07:00,
2013-02-20 15:12:00,44.5,44.5,29.93,SSW,192,0.0,3.0,100,0.00,,,0.00,Wunderground v.1.15,2013-02-20 23:12:00,
2013-02-20 15:22:00,44.2,44.2,29.93,SSE,155,0.0,0.0,100,0.00,,,0.01,Wunderground v.1.15,2013-02-20 23:22:00,
2013-02-20 15:27:00,44.1,44.1,29.93,SSE,161,0.0,0.0,100,0.00,,,0.01,Wunderground v.1.15,2013-02-20 23:27:00,
2013-02-20 15:37:00,43.9,43.9,29.93,SSE,155,0.0,0.0,100,0.00,,,0.01,Wunderground v.1.15,2013-02-20 23:37:00,
2013-02-20 15:47:00,43.9,43.9,29.93,SSE,151,0.0,0.0,100,0.00,,,0.01,Wunderground v.1.15,2013-02-20 23:47:00,
2013-02-20 15:52:00,43.9,43.9,29.93,SSE,157,0.0,0.0,100,0.00,,,0.01,Wunderground v.1.15,2013-02-20 23:52:00,
2013-02-20 16:02:00,43.8,43.8,29.93,SSE,164,0.0,1.0,100,0.00,,,0.02,Wunderground v.1.15,2013-02-21 00:02:00,
2013-02-20 16:07:00,43.8,43.8,29.93,SSE,162,0.0,1.0,100,0.00,,,0.02,Wunderground v.1.15,2013-02-21 00:07:00,
2013-02-20 16:17:00,43.8,43.8,29.93,South,174,0.0,0.0,100,0.05,,,0.03,Wunderground v.1.15,2013-02-21 00:17:00,
2013-02-20 16:22:00,43.8,43.8,29.93,South,182,0.0,0.0,100,0.05,,,0.03,Wunderground v.1.15,2013-02-21 00:22:00,
2013-02-20 16:32:00,43.8,43.8,29.92,SSE,167,0.0,0.0,100,0.00,,,0.03,Wunderground v.1.15,2013-02-21 00:32:00,
2013-02-20 16:37:00,43.8,43.8,29.92,SSE,164,0.0,0.0,100,0.00,,,0.04,Wunderground v.1.15,2013-02-21 00:37:00,
2013-02-20 16:47:00,43.6,43.6,29.92,SE,140,0.0,0.0,100,0.00,,,0.04,Wunderground v.1.15,2013-02-21 00:47:00,
2013-02-20 16:57:00,43.6,43.6,29.92,SSE,147,0.0,0.0,100,0.00,,,0.05,Wunderground v.1.15,2013-02-21 00:57:00,
2013-02-20 17:02:00,43.6,43.6,29.92,SSE,151,0.0,0.0,100,0.00,,,0.05,Wunderground v.1.15,2013-02-21 01:02:00,
2013-02-20 17:07:00,43.5,43.5,29.92,SSE,167,0.0,0.0,100,0.00,,,0.05,Wunderground v.1.15,2013-02-21 01:07:00,
2013-02-20 17:17:00,43.3,43.3,29.92,SE,144,0.0,0.0,100,0.00,,,0.06,Wunderground v.1.15,2013-02-21 01:17:00,
2013-02-20 17:22:00,43.3,43.3,29.92,SSE,158,0.0,0.0,100,0.00,,,0.06,Wunderground v.1.15,2013-02-21 01:22:00,
2013-02-20 17:32:00,43.2,43.2,29.93,SSE,158,0.0,0.0,100,0.04,,,0.07,Wunderground v.1.15,2013-02-21 01:32:00,
2013-02-20 17:42:00,43.2,43.2,29.93,SE,140,0.0,0.0,100,0.05,,,0.08,Wunderground v.1.15,2013-02-21 01:42:00,
2013-02-20 17:47:00,43.1,43.1,29.93,SE,140,0.0,0.0,100,0.05,,,0.08,Wunderground v.1.15,2013-02-21 01:47:00,
2013-02-20 17:57:00,43.1,43.1,29.93,SE,140,0.0,0.0,100,0.04,,,0.08,Wunderground v.1.15,2013-02-21 01:57:00,
2013-02-20 18:02:00,43.1,43.1,29.93,SE,140,0.0,0.0,100,0.04,,,0.09,Wunderground v.1.15,2013-02-21 02:02:00,
2013-02-20 18:07:00,43.2,43.2,29.93,SE,140,0.0,0.0,100,0.04,,,0.09,Wunderground v.1.15,2013-02-21 02:07:00,
2013-02-20 18:17:00,43.1,43.1,29.93,SE,140,0.0,0.0,100,0.00,,,0.09,Wunderground v.1.15,2013-02-21 02:17:00,
2013-02-20 18:22:00,42.9,42.9,29.93,SE,140,0.0,0.0,100,0.00,,,0.09,Wunderground v.1.15,2013-02-21 02:22:00,
2013-02-20 18:32:00,42.6,42.6,29.93,SE,133,0.0,0.0,100,0.00,,,0.09,Wunderground v.1.15,2013-02-21 02:32:00,
2013-02-20 18:42:00,42.5,42.5,29.93,SE,130,0.0,0.0,100,0.00,,,0.09,Wunderground v.1.15,2013-02-21 02:42:00,
2013-02-20 18:47:00,42.5,42.5,29.93,SE,130,0.0,0.0,100,0.00,,,0.09,Wunderground v.1.15,2013-02-21 02:47:00,
2013-02-20 18:57:00,42.3,42.3,29.93,SE,130,0.0,0.0,100,0.00,,,0.09,Wunderground v.1.15,2013-02-21 02:57:00,
2013-02-20 19:02:00,42.3,42.3,29.93,SE,131,0.0,0.0,100,0.00,,,0.09,Wunderground v.1.15,2013-02-21 03:02:00,
2013-02-20 19:07:00,42.3,42.3,29.93,SE,131,0.0,0.0,100,0.00,,,0.10,Wunderground v.1.15,2013-02-21 03:07:00,
2013-02-20 19:17:00,42.3,42.3,29.94,SE,130,0.0,0.0,100,0.00,,,0.10,Wunderground v.1.15,2013-02-21 03:17:00,
2013-02-20 19:22:00,42.3,42.3,29.94,SE,127,0.0,0.0,100,0.00,,,0.10,Wunderground v.1.15,2013-02-21 03:22:00,
2013-02-20 19:32:00,42.3,42.3,29.94,ESE,121,0.0,0.0,100,0.00,,,0.10,Wunderground v.1.15,2013-02-21 03:32:00,
2013-02-20 19:42:00,42.5,42.5,29.94,SSE,148,0.0,0.0,100,0.00,,,0.10,Wunderground v.1.15,2013-02-21 03:42:00,
2013-02-20 19:47:00,42.3,42.3,29.94,SSE,165,0.0,0.0,100,0.00,,,0.10,Wunderground v.1.15,2013-02-21 03:47:00,
2013-02-20 19:57:00,42.5,42.5,29.94,SE,144,0.0,0.0,100,0.00,,,0.10,Wunderground v.1.15,2013-02-21 03:57:00,
2013-02-20 20:07:00,42.5,42.5,29.94,SSW,196,0.0,0.0,100,0.00,,,0.10,Wunderground v.1.15,2013-02-21 04:07:00,
2013-02-20 20:17:00,42.8,42.8,29.94,SSE,152,0.0,0.0,100,0.00,,,0.10,Wunderground v.1.15,2013-02-21 04:17:00,
2013-02-20 20:27:00,42.8,42.8,29.94,SSE,148,0.0,0.0,100,0.00,,,0.10,Wunderground v.1.15,2013-02-21 04:27:00,
2013-02-20 20:32:00,42.8,42.8,29.95,SE,126,0.0,0.0,100,0.00,,,0.10,Wunderground v.1.15,2013-02-21 04:32:00,
2013-02-20 20:42:00,42.9,42.9,29.95,SSE,164,0.0,0.0,100,0.00,,,0.10,Wunderground v.1.15,2013-02-21 04:42:00,
2013-02-20 20:47:00,42.8,42.8,29.95,ESE,123,0.0,0.0,100,0.00,,,0.10,Wunderground v.1.15,2013-02-21 04:47:00,
2013-02-20 20:57:00,42.8,42.8,29.95,SSE,151,0.0,0.0,100,0.00,,,0.10,Wunderground v.1.15,2013-02-21 04:57:00,
2013-02-20 21:02:00,42.6,42.6,29.95,SSE,147,0.0,0.0,100,0.00,,,0.10,Wunderground v.1.15,2013-02-21 05:02:00,
2013-02-20 21:07:00,42.6,42.6,29.95,South,169,0.0,0.0,100,0.00,,,0.10,Wunderground v.1.15,2013-02-21 05:07:00,
2013-02-20 21:12:00,42.6,42.6,29.95,SSE,151,0.0,0.0,100,0.00,,,0.10,Wunderground v.1.15,2013-02-21 05:12:00,
2013-02-20 21:17:00,42.5,42.5,29.95,SSE,154,0.0,0.0,100,0.00,,,0.10,Wunderground v.1.15,2013-02-21 05:17:00,
2013-02-20 21:22:00,42.5,42.5,29.95,SSE,158,0.0,0.0,100,0.00,,,0.10,Wunderground v.1.15,2013-02-21 05:22:00,
2013-02-20 21:32:00,42.2,42.2,29.96,South,181,0.0,0.0,100,0.00,,,0.10,Wunderground v.1.15,2013-02-21 05:32:00,
2013-02-20 21:42:00,42.2,42.2,29.96,SSE,157,0.0,0.0,100,0.00,,,0.10,Wunderground v.1.15,2013-02-21 05:42:00,
2013-02-20 21:52:00,42.1,42.1,29.96,SSE,158,0.0,0.0,100,0.00,,,0.10,Wunderground v.1.15,2013-02-21 05:52:00,
2013-02-20 22:02:00,42.1,42.1,29.96,South,175,0.0,0.0,100,0.00,,,0.10,Wunderground v.1.15,2013-02-21 06:02:00,
2013-02-20 22:12:00,41.9,41.9,29.96,South,174,0.0,0.0,100,0.00,,,0.10,Wunderground v.1.15,2013-02-21 06:12:00,
2013-02-20 22:22:00,41.9,41.9,29.96,SE,145,0.0,0.0,100,0.00,,,0.10,Wunderground v.1.15,2013-02-21 06:22:00,
2013-02-20 22:32:00,41.9,41.9,29.97,SE,144,0.0,0.0,100,0.00,,,0.10,Wunderground v.1.15,2013-02-21 06:32:00,
2013-02-20 22:37:00,42.1,42.1,29.97,South,181,0.0,0.0,100,0.00,,,0.10,Wunderground v.1.15,2013-02-21 06:37:00,
2013-02-20 22:47:00,42.1,42.1,29.97,SE,141,0.0,0.0,100,0.00,,,0.10,Wunderground v.1.15,2013-02-21 06:47:00,
2013-02-20 22:52:00,42.2,42.2,29.97,SE,137,0.0,0.0,100,0.00,,,0.10,Wunderground v.1.15,2013-02-21 06:52:00,
2013-02-20 23:02:00,42.1,42.1,29.97,SSW,210,0.0,0.0,100,0.00,,,0.10,Wunderground v.1.15,2013-02-21 07:02:00,
2013-02-20 23:12:00,42.1,42.1,29.97,South,171,0.0,0.0,100,0.00,,,0.10,Wunderground v.1.15,2013-02-21 07:12:00,
2013-02-20 23:22:00,41.9,41.9,29.97,SW,217,0.0,0.0,100,0.00,,,0.10,Wunderground v.1.15,2013-02-21 07:22:00,
2013-02-20 23:32:00,41.8,41.8,29.98,SSE,162,0.0,1.0,100,0.00,,,0.10,Wunderground v.1.15,2013-02-21 07:32:00,
2013-02-20 23:37:00,41.9,41.9,29.98,SSW,213,0.0,1.0,100,0.00,,,0.10,Wunderground v.1.15,2013-02-21 07:37:00,
2013-02-20 23:47:00,41.8,41.8,29.97,SW,229,0.0,0.0,100,0.00,,,0.10,Wunderground v.1.15,2013-02-21 07:47:00,
2013-02-20 23:52:00,41.8,41.8,29.97,SSW,199,0.0,0.0,100,0.00,,,0.10,Wunderground v.1.15,2013-02-21 07:52:00,